Back to Top

Language: 

My Weather Underground Personal Weather Station Historical Data with Graphs...

Delerius Weather Station Historical Data
Daily Summary for October 7, 2017 Units:  English    Metric   Both
« Previous Day
Next Day »
Daily Weekly Monthly Yearly Custom
  High: Low: Average:
Temperature: 57.9 °F 52.0 °F 55.4 °F
Dew Point: 53.6 °F 46.2 °F 51.6 °F
Humidity: 92 % 80 % 87 %
Wind Speed: 24.0 mph 0.0 mph 12.5 mph
Wind Gust: 37.0 mph - -
Wind:- - West
Pressure: 30.11 in 29.89 in -
Precipitation: 0.01 in    
Historical Graphs
 
 
Tabular Data for October 7, 2017
Time Temperature Dew Point Pressure Wind Wind Speed Wind Gust Humidity Rainfall Rate (Hourly) solar Conditions
00:04 52.2 °F 46.2 °F 30.11 in SW 4.0 mph 8.0 mph 80 % 0.00 in 0 W/m2
00:09 52.3 °F 46.7 °F 30.11 in SW 4.0 mph 8.0 mph 81 % 0.00 in 0 W/m2
00:14 52.3 °F 46.7 °F 30.11 in SW 3.0 mph 9.0 mph 81 % 0.00 in 0 W/m2
00:19 52.3 °F 47.0 °F 30.11 in SW 1.0 mph 9.0 mph 82 % 0.00 in 0 W/m2
00:24 52.3 °F 47.0 °F 30.10 in Calm   1.0 mph 82 % 0.00 in 0 W/m2
00:29 52.3 °F 47.0 °F 30.10 in Calm   1.0 mph 82 % 0.00 in 0 W/m2
00:34 52.5 °F 47.5 °F 30.10 in South 2.0 mph 9.0 mph 83 % 0.00 in 0 W/m2
00:39 52.7 °F 47.7 °F 30.09 in South 3.0 mph 9.0 mph 83 % 0.00 in 0 W/m2
00:44 52.7 °F 47.7 °F 30.09 in South 2.0 mph 10.0 mph 83 % 0.00 in 0 W/m2
00:49 52.9 °F 47.9 °F 30.09 in South 2.0 mph 10.0 mph 83 % 0.00 in 0 W/m2
00:54 52.9 °F 48.2 °F 30.09 in SW 2.0 mph 7.0 mph 84 % 0.00 in 0 W/m2
00:59 52.9 °F 48.2 °F 30.08 in WSW 2.0 mph 7.0 mph 84 % 0.00 in 0 W/m2
01:04 53.1 °F 48.7 °F 30.08 in WSW 3.0 mph 9.0 mph 85 % 0.00 in 0 W/m2
01:09 53.1 °F 48.7 °F 30.08 in WSW 6.0 mph 14.0 mph 85 % 0.00 in 0 W/m2
01:14 53.2 °F 48.8 °F 30.08 in WSW 8.0 mph 19.0 mph 85 % 0.00 in 0 W/m2
01:19 53.2 °F 48.8 °F 30.07 in WSW 8.0 mph 19.0 mph 85 % 0.00 in 0 W/m2
01:24 53.2 °F 49.2 °F 30.07 in WSW 9.0 mph 15.0 mph 86 % 0.00 in 0 W/m2
01:29 53.4 °F 49.3 °F 30.06 in WSW 10.0 mph 22.0 mph 86 % 0.00 in 0 W/m2
01:34 53.4 °F 49.3 °F 30.06 in WSW 11.0 mph 22.0 mph 86 % 0.00 in 0 W/m2
01:39 53.4 °F 49.3 °F 30.05 in SW 9.0 mph 19.0 mph 86 % 0.00 in 0 W/m2
01:44 53.2 °F 49.5 °F 30.05 in SW 9.0 mph 16.0 mph 87 % 0.00 in 0 W/m2
01:55 53.6 °F 49.8 °F 30.05 in SW 10.0 mph 18.0 mph 87 % 0.00 in 0 W/m2
02:00 53.8 °F 50.0 °F 30.05 in SW 10.0 mph 15.0 mph 87 % 0.00 in 0 W/m2
02:05 54.1 °F 50.4 °F 30.05 in WSW 10.0 mph 18.0 mph 87 % 0.00 in 0 W/m2
02:10 54.3 °F 50.5 °F 30.04 in WSW 10.0 mph 18.0 mph 87 % 0.00 in 0 W/m2
02:20 54.9 °F 50.8 °F 30.04 in WSW 12.0 mph 27.0 mph 86 % 0.00 in 0 W/m2
02:25 55.0 °F 50.9 °F 30.04 in WSW 11.0 mph 21.0 mph 86 % 0.00 in 0 W/m2
02:30 55.2 °F 51.1 °F 30.03 in WSW 12.0 mph 21.0 mph 86 % 0.00 in 0 W/m2
02:35 55.2 °F 50.8 °F 30.03 in WSW 13.0 mph 21.0 mph 85 % 0.00 in 0 W/m2
02:45 55.4 °F 51.3 °F 30.02 in WSW 15.0 mph 25.0 mph 86 % 0.00 in 0 W/m2
02:50 55.4 °F 51.3 °F 30.01 in WSW 15.0 mph 25.0 mph 86 % 0.00 in 0 W/m2
02:55 55.4 °F 51.3 °F 30.01 in WSW 15.0 mph 29.0 mph 86 % 0.00 in 0 W/m2
03:00 55.4 °F 51.3 °F 30.00 in WSW 15.0 mph 29.0 mph 86 % 0.00 in 0 W/m2
03:05 55.6 °F 51.5 °F 30.00 in WSW 15.0 mph 26.0 mph 86 % 0.00 in 0 W/m2
03:10 55.6 °F 51.5 °F 30.00 in WSW 15.0 mph 27.0 mph 86 % 0.00 in 0 W/m2
03:20 55.8 °F 51.6 °F 30.00 in West 13.0 mph 30.0 mph 86 % 0.00 in 0 W/m2
03:25 55.8 °F 51.6 °F 30.00 in West 13.0 mph 30.0 mph 86 % 0.00 in 0 W/m2
03:30 55.9 °F 51.8 °F 30.00 in WSW 14.0 mph 26.0 mph 86 % 0.00 in 0 W/m2
03:35 55.9 °F 51.8 °F 29.99 in West 14.0 mph 26.0 mph 86 % 0.00 in 0 W/m2
03:40 55.9 °F 51.8 °F 29.99 in West 14.0 mph 25.0 mph 86 % 0.00 in 0 W/m2
03:45 55.9 °F 51.8 °F 29.99 in WSW 14.0 mph 23.0 mph 86 % 0.00 in 0 W/m2
03:50 56.1 °F 52.0 °F 29.98 in WSW 14.0 mph 23.0 mph 86 % 0.00 in 0 W/m2
03:55 56.1 °F 52.3 °F 29.98 in WSW 14.0 mph 25.0 mph 87 % 0.00 in 0 W/m2
04:00 56.1 °F 52.3 °F 29.98 in WSW 15.0 mph 25.0 mph 87 % 0.00 in 0 W/m2
04:05 56.3 °F 52.5 °F 29.98 in WSW 14.0 mph 25.0 mph 87 % 0.00 in 0 W/m2
04:10 56.5 °F 52.7 °F 29.97 in WSW 14.0 mph 23.0 mph 87 % 0.00 in 0 W/m2
04:15 56.5 °F 52.7 °F 29.97 in WSW 14.0 mph 23.0 mph 87 % 0.00 in 0 W/m2
04:21 56.5 °F 52.7 °F 29.97 in WSW 14.0 mph 24.0 mph 87 % 0.00 in 0 W/m2
04:26 56.5 °F 52.7 °F 29.97 in WSW 15.0 mph 25.0 mph 87 % 0.00 in 0 W/m2
04:31 56.5 °F 52.7 °F 29.97 in WSW 15.0 mph 25.0 mph 87 % 0.00 in 0 W/m2
04:36 56.5 °F 52.7 °F 29.97 in WSW 15.0 mph 25.0 mph 87 % 0.00 in 0 W/m2
04:41 56.3 °F 52.8 °F 29.96 in WSW 14.0 mph 24.0 mph 88 % 0.00 in 0 W/m2
04:46 56.3 °F 52.8 °F 29.95 in WSW 13.0 mph 25.0 mph 88 % 0.00 in 0 W/m2
04:51 56.1 °F 52.6 °F 29.95 in WSW 12.0 mph 25.0 mph 88 % 0.00 in 0 W/m2
04:56 56.1 °F 52.9 °F 29.95 in WSW 12.0 mph 22.0 mph 89 % 0.00 in 0 W/m2
05:01 56.3 °F 53.1 °F 29.94 in WSW 13.0 mph 22.0 mph 89 % 0.00 in 0 W/m2
05:06 56.3 °F 53.1 °F 29.94 in WSW 13.0 mph 23.0 mph 89 % 0.00 in 0 W/m2
05:11 56.5 °F 53.0 °F 29.94 in WSW 14.0 mph 23.0 mph 88 % 0.00 in 0 W/m2
05:16 56.5 °F 53.0 °F 29.94 in WSW 15.0 mph 26.0 mph 88 % 0.00 in 0 W/m2
05:21 56.7 °F 53.1 °F 29.94 in WSW 16.0 mph 26.0 mph 88 % 0.00 in 0 W/m2
05:23 56.7 °F 53.1 °F 29.94 in West 16.0 mph 27.0 mph 88 % 0.00 in 0 W/m2
05:28 56.7 °F 53.1 °F 29.94 in West 16.0 mph 27.0 mph 88 % 0.00 in 0 W/m2
05:33 56.7 °F 53.1 °F 29.94 in West 15.0 mph 24.0 mph 88 % 0.00 in 0 W/m2
05:38 56.7 °F 53.1 °F 29.94 in West 16.0 mph 29.0 mph 88 % 0.00 in 0 W/m2
05:43 56.7 °F 53.1 °F 29.94 in West 15.0 mph 29.0 mph 88 % 0.00 in 0 W/m2
05:48 56.7 °F 53.1 °F 29.94 in West 15.0 mph 23.0 mph 88 % 0.00 in 0 W/m2
05:53 56.5 °F 53.0 °F 29.94 in West 15.0 mph 27.0 mph 88 % 0.00 in 0 W/m2
05:58 56.5 °F 53.3 °F 29.94 in West 15.0 mph 27.0 mph 89 % 0.00 in 0 W/m2
06:03 56.5 °F 53.3 °F 29.94 in West 14.0 mph 25.0 mph 89 % 0.00 in 0 W/m2
06:08 56.3 °F 53.1 °F 29.93 in West 12.0 mph 21.0 mph 89 % 0.00 in 0 W/m2
06:13 56.3 °F 53.1 °F 29.93 in West 11.0 mph 19.0 mph 89 % 0.00 in 0 W/m2
06:18 56.3 °F 53.4 °F 29.93 in West 13.0 mph 30.0 mph 90 % 0.00 in 0 W/m2
06:23 56.5 °F 53.3 °F 29.93 in West 15.0 mph 30.0 mph 89 % 0.00 in 0 W/m2
06:28 56.5 °F 53.6 °F 29.93 in West 15.0 mph 25.0 mph 90 % 0.00 in 0 W/m2
06:33 56.3 °F 53.4 °F 29.93 in West 16.0 mph 27.0 mph 90 % 0.00 in 0 W/m2
06:38 56.5 °F 53.6 °F 29.92 in West 16.0 mph 28.0 mph 90 % 0.00 in 0 W/m2
06:43 56.5 °F 53.6 °F 29.92 in West 16.0 mph 28.0 mph 90 % 0.00 in 0 W/m2
06:48 56.5 °F 53.3 °F 29.92 in West 14.0 mph 27.0 mph 89 % 0.00 in 0 W/m2
06:53 56.5 °F 53.3 °F 29.92 in West 14.0 mph 26.0 mph 89 % 0.00 in 0 W/m2
06:58 56.5 °F 53.3 °F 29.92 in West 17.0 mph 30.0 mph 89 % 0.00 in 0 W/m2
07:03 56.7 °F 53.1 °F 29.92 in West 17.0 mph 30.0 mph 88 % 0.00 in 0 W/m2
07:08 56.7 °F 53.1 °F 29.91 in West 16.0 mph 26.0 mph 88 % 0.00 in 0 W/m2
07:13 56.7 °F 53.1 °F 29.92 in West 16.0 mph 26.0 mph 88 % 0.00 in 0 W/m2
07:18 56.8 °F 53.6 °F 29.92 in West 16.0 mph 25.0 mph 89 % 0.00 in 0 W/m2
07:23 56.8 °F 53.6 °F 29.91 in West 14.0 mph 25.0 mph 89 % 0.00 in 0 W/m2
07:28 56.7 °F 53.1 °F 29.92 in West 15.0 mph 25.0 mph 88 % 0.00 in 7 W/m2
07:33 56.7 °F 52.8 °F 29.92 in West 17.0 mph 30.0 mph 87 % 0.00 in 9 W/m2
07:38 56.7 °F 52.5 °F 29.91 in West 16.0 mph 30.0 mph 86 % 0.00 in 11 W/m2
07:44 56.7 °F 52.5 °F 29.92 in West 17.0 mph 29.0 mph 86 % 0.00 in 16 W/m2
07:49 56.7 °F 52.5 °F 29.91 in West 18.0 mph 29.0 mph 86 % 0.00 in 19 W/m2
07:54 56.5 °F 52.3 °F 29.91 in West 19.0 mph 31.0 mph 86 % 0.00 in 21 W/m2
07:59 56.5 °F 52.3 °F 29.91 in West 19.0 mph 32.0 mph 86 % 0.00 in 25 W/m2
08:04 56.5 °F 52.3 °F 29.91 in West 17.0 mph 32.0 mph 86 % 0.00 in 21 W/m2
08:09 56.5 °F 52.0 °F 29.91 in West 15.0 mph 25.0 mph 85 % 0.00 in 26 W/m2
08:14 56.5 °F 52.0 °F 29.90 in West 14.0 mph 24.0 mph 85 % 0.00 in 25 W/m2
08:19 56.5 °F 52.0 °F 29.90 in West 15.0 mph 27.0 mph 85 % 0.00 in 25 W/m2
08:24 56.7 °F 52.2 °F 29.90 in West 16.0 mph 27.0 mph 85 % 0.00 in 37 W/m2
08:29 56.7 °F 51.9 °F 29.90 in West 15.0 mph 27.0 mph 84 % 0.00 in 39 W/m2
08:34 56.7 °F 51.9 °F 29.90 in West 15.0 mph 24.0 mph 84 % 0.00 in 30 W/m2
08:39 56.8 °F 52.1 °F 29.90 in WNW 16.0 mph 30.0 mph 84 % 0.00 in 35 W/m2
08:44 56.8 °F 51.7 °F 29.90 in West 16.0 mph 30.0 mph 83 % 0.00 in 42 W/m2
08:49 56.8 °F 51.7 °F 29.91 in West 15.0 mph 26.0 mph 83 % 0.00 in 49 W/m2
08:54 56.8 °F 52.1 °F 29.91 in West 16.0 mph 31.0 mph 84 % 0.00 in 54 W/m2
08:59 56.8 °F 52.1 °F 29.91 in West 17.0 mph 31.0 mph 84 % 0.00 in 63 W/m2
09:04 57.0 °F 52.2 °F 29.91 in West 17.0 mph 28.0 mph 84 % 0.00 in 74 W/m2
09:09 57.0 °F 51.9 °F 29.91 in West 17.0 mph 26.0 mph 83 % 0.00 in 83 W/m2
09:14 57.0 °F 51.9 °F 29.90 in West 18.0 mph 28.0 mph 83 % 0.00 in 95 W/m2
09:19 57.0 °F 51.9 °F 29.90 in West 17.0 mph 28.0 mph 83 % 0.00 in 86 W/m2
09:24 56.8 °F 51.7 °F 29.90 in West 18.0 mph 28.0 mph 83 % 0.00 in 83 W/m2
09:29 56.8 °F 51.7 °F 29.90 in West 20.0 mph 29.0 mph 83 % 0.00 in 83 W/m2
09:34 57.0 °F 51.9 °F 29.89 in West 19.0 mph 32.0 mph 83 % 0.00 in 86 W/m2
09:39 57.0 °F 51.9 °F 29.90 in West 20.0 mph 32.0 mph 83 % 0.00 in 95 W/m2
09:44 57.0 °F 51.9 °F 29.90 in West 20.0 mph 32.0 mph 83 % 0.00 in 77 W/m2
09:49 57.0 °F 51.9 °F 29.90 in West 19.0 mph 32.0 mph 83 % 0.00 in 74 W/m2
09:54 57.0 °F 51.6 °F 29.90 in West 19.0 mph 31.0 mph 82 % 0.00 in 67 W/m2
09:59 57.0 °F 51.6 °F 29.90 in West 19.0 mph 31.0 mph 82 % 0.00 in 69 W/m2
10:04 57.0 °F 51.9 °F 29.90 in West 17.0 mph 28.0 mph 83 % 0.00 in 60 W/m2
10:09 57.0 °F 51.9 °F 29.90 in WNW 17.0 mph 29.0 mph 83 % 0.00 in 58 W/m2
10:14 57.0 °F 51.9 °F 29.90 in WNW 17.0 mph 29.0 mph 83 % 0.00 in 63 W/m2
10:19 57.0 °F 51.9 °F 29.90 in WNW 18.0 mph 36.0 mph 83 % 0.00 in 74 W/m2
10:24 57.0 °F 51.6 °F 29.89 in West 21.0 mph 36.0 mph 82 % 0.00 in 77 W/m2
10:29 57.0 °F 51.9 °F 29.89 in West 20.0 mph 33.0 mph 83 % 0.00 in 72 W/m2
10:34 56.8 °F 52.1 °F 29.89 in WNW 20.0 mph 33.0 mph 84 % 0.00 in 69 W/m2
10:39 56.7 °F 51.9 °F 29.89 in WNW 21.0 mph 32.0 mph 84 % 0.00 in 62 W/m2
10:44 56.5 °F 52.0 °F 29.89 in WNW 22.0 mph 37.0 mph 85 % 0.00 in 74 W/m2
10:49 56.1 °F 52.0 °F 29.89 in WNW 22.0 mph 37.0 mph 86 % 0.00 in 83 W/m2
10:54 55.9 °F 51.5 °F 29.89 in WNW 22.0 mph 35.0 mph 85 % 0.00 in 93 W/m2
10:59 56.1 °F 51.7 °F 29.89 in WNW 24.0 mph 37.0 mph 85 % 0.00 in 127 W/m2
11:04 56.5 °F 51.4 °F 29.89 in WNW 24.0 mph 37.0 mph 83 % 0.00 in 139 W/m2
11:10 56.7 °F 51.2 °F 29.89 in West 23.0 mph 35.0 mph 82 % 0.00 in 130 W/m2
11:15 56.8 °F 51.4 °F 29.89 in WNW 22.0 mph 34.0 mph 82 % 0.00 in 153 W/m2
11:20 57.0 °F 51.6 °F 29.90 in WNW 22.0 mph 35.0 mph 82 % 0.00 in 183 W/m2
11:30 57.6 °F 51.4 °F 29.90 in WNW 20.0 mph 31.0 mph 80 % 0.00 in 213 W/m2
11:35 57.7 °F 51.6 °F 29.90 in WNW 20.0 mph 30.0 mph 80 % 0.00 in 213 W/m2
11:40 57.7 °F 51.6 °F 29.90 in WNW 19.0 mph 29.0 mph 80 % 0.00 in 202 W/m2
11:45 57.7 °F 52.3 °F 29.90 in WNW 19.0 mph 30.0 mph 82 % 0.00 in 179 W/m2
11:50 57.6 °F 52.4 °F 29.91 in WNW 18.0 mph 30.0 mph 83 % 0.00 in 165 W/m2
11:55 57.4 °F 52.3 °F 29.91 in West 16.0 mph 27.0 mph 83 % 0.00 in 153 W/m2
12:00 57.2 °F 52.1 °F 29.91 in WNW 18.0 mph 29.0 mph 83 % 0.00 in 149 W/m2
12:05 57.2 °F 51.8 °F 29.92 in WNW 19.0 mph 29.0 mph 82 % 0.00 in 149 W/m2
12:10 57.2 °F 51.8 °F 29.92 in WNW 18.0 mph 29.0 mph 82 % 0.00 in 156 W/m2
12:15 57.2 °F 52.1 °F 29.92 in WNW 16.0 mph 26.0 mph 83 % 0.00 in 141 W/m2
12:20 57.2 °F 52.1 °F 29.92 in WNW 15.0 mph 28.0 mph 83 % 0.00 in 134 W/m2
12:25 57.0 °F 51.6 °F 29.92 in WNW 15.0 mph 28.0 mph 82 % 0.00 in 132 W/m2
12:30 57.0 °F 51.9 °F 29.92 in West 15.0 mph 27.0 mph 83 % 0.00 in 127 W/m2
12:35 57.0 °F 51.9 °F 29.92 in West 14.0 mph 22.0 mph 83 % 0.00 in 128 W/m2
12:40 56.8 °F 51.7 °F 29.92 in West 14.0 mph 24.0 mph 83 % 0.00 in 121 W/m2
12:45 57.0 °F 52.2 °F 29.93 in West 13.0 mph 24.0 mph 84 % 0.00 in 158 W/m2
12:50 57.0 °F 52.2 °F 29.92 in WNW 12.0 mph 20.0 mph 84 % 0.00 in 165 W/m2
12:55 57.2 °F 52.4 °F 29.92 in West 10.0 mph 18.0 mph 84 % 0.00 in 135 W/m2
13:00 57.2 °F 52.4 °F 29.92 in West 10.0 mph 19.0 mph 84 % 0.00 in 105 W/m2
13:05 57.0 °F 51.9 °F 29.93 in West 12.0 mph 21.0 mph 83 % 0.00 in 69 W/m2
13:10 57.0 °F 51.9 °F 29.92 in WNW 13.0 mph 22.0 mph 83 % 0.00 in 107 W/m2
13:15 57.0 °F 52.2 °F 29.93 in WNW 12.0 mph 22.0 mph 84 % 0.00 in 114 W/m2
13:20 57.0 °F 52.2 °F 29.92 in West 13.0 mph 21.0 mph 84 % 0.00 in 214 W/m2
13:25 57.2 °F 52.4 °F 29.92 in West 12.0 mph 21.0 mph 84 % 0.00 in 206 W/m2
13:30 57.4 °F 52.3 °F 29.92 in WNW 10.0 mph 20.0 mph 83 % 0.00 in 213 W/m2
13:35 57.6 °F 52.4 °F 29.92 in WNW 11.0 mph 20.0 mph 83 % 0.00 in 149 W/m2
13:40 57.6 °F 52.4 °F 29.91 in WNW 12.0 mph 21.0 mph 83 % 0.00 in 107 W/m2
13:45 57.6 °F 52.4 °F 29.91 in WNW 13.0 mph 22.0 mph 83 % 0.00 in 118 W/m2
13:50 57.6 °F 52.4 °F 29.91 in WNW 12.0 mph 22.0 mph 83 % 0.00 in 107 W/m2
13:55 57.6 °F 52.1 °F 29.91 in West 12.0 mph 23.0 mph 82 % 0.00 in 113 W/m2
14:05 57.4 °F 52.3 °F 29.90 in West 15.0 mph 28.0 mph 83 % 0.00 in 149 W/m2
14:10 57.6 °F 52.4 °F 29.90 in West 14.0 mph 28.0 mph 83 % 0.00 in 162 W/m2
14:15 57.6 °F 52.4 °F 29.90 in WNW 13.0 mph 22.0 mph 83 % 0.00 in 204 W/m2
14:20 57.7 °F 52.3 °F 29.90 in WNW 13.0 mph 23.0 mph 82 % 0.00 in 144 W/m2
14:26 57.7 °F 52.3 °F 29.90 in WNW 14.0 mph 23.0 mph 82 % 0.00 in 128 W/m2
14:31 57.7 °F 52.3 °F 29.90 in WNW 14.0 mph 23.0 mph 82 % 0.00 in 149 W/m2
14:36 57.7 °F 52.6 °F 29.90 in WNW 14.0 mph 26.0 mph 83 % 0.00 in 172 W/m2
14:41 57.9 °F 53.4 °F 29.90 in WNW 13.0 mph 26.0 mph 85 % 0.00 in 186 W/m2
14:51 57.4 °F 52.6 °F 29.90 in WNW 15.0 mph 24.0 mph 84 % 0.00 in 56 W/m2
14:56 57.4 °F 52.9 °F 29.90 in WNW 13.0 mph 23.0 mph 85 % 0.00 in 35 W/m2
15:00 57.0 °F 52.6 °F 29.91 in WNW 11.0 mph 20.0 mph 85 % 0.00 in 39 W/m2
15:05 56.8 °F 52.7 °F 29.91 in WNW 11.0 mph 20.0 mph 86 % 0.00 in 46 W/m2
15:10 56.5 °F 52.7 °F 29.91 in WNW 11.0 mph 20.0 mph 87 % 0.00 in 42 W/m2
15:15 56.3 °F 52.8 °F 29.91 in WNW 10.0 mph 16.0 mph 88 % 0.01 in 51 W/m2
15:20 55.9 °F 52.4 °F 29.90 in WNW 10.0 mph 20.0 mph 88 % 0.01 in 58 W/m2
15:25 55.8 °F 52.6 °F 29.90 in WNW 12.0 mph 20.0 mph 89 % 0.01 in 60 W/m2
15:30 55.6 °F 52.4 °F 29.91 in WNW 11.0 mph 19.0 mph 89 % 0.01 in 47 W/m2
15:35 55.6 °F 52.4 °F 29.90 in WNW 11.0 mph 19.0 mph 89 % 0.01 in 58 W/m2
15:40 55.4 °F 52.2 °F 29.91 in WNW 12.0 mph 22.0 mph 89 % 0.01 in 60 W/m2
15:45 55.6 °F 52.4 °F 29.91 in WNW 13.0 mph 25.0 mph 89 % 0.01 in 53 W/m2
15:50 55.6 °F 52.4 °F 29.91 in WNW 11.0 mph 25.0 mph 89 % 0.01 in 46 W/m2
15:55 55.6 °F 52.4 °F 29.91 in WNW 9.0 mph 15.0 mph 89 % 0.01 in 44 W/m2
16:05 55.4 °F 51.9 °F 29.91 in WNW 7.0 mph 16.0 mph 88 % 0.01 in 44 W/m2
16:10 55.6 °F 52.1 °F 29.91 in WNW 8.0 mph 21.0 mph 88 % 0.01 in 39 W/m2
16:15 55.6 °F 52.1 °F 29.91 in WNW 10.0 mph 21.0 mph 88 % 0.00 in 56 W/m2
16:20 55.6 °F 52.1 °F 29.91 in WNW 12.0 mph 24.0 mph 88 % 0.00 in 104 W/m2
16:25 55.8 °F 52.3 °F 29.91 in WNW 12.0 mph 24.0 mph 88 % 0.00 in 188 W/m2
16:30 55.9 °F 52.4 °F 29.90 in WNW 10.0 mph 18.0 mph 88 % 0.00 in 137 W/m2
16:35 56.1 °F 52.6 °F 29.91 in WNW 10.0 mph 18.0 mph 88 % 0.00 in 297 W/m2
16:40 56.3 °F 52.5 °F 29.90 in WNW 10.0 mph 20.0 mph 87 % 0.00 in 294 W/m2
16:45 56.5 °F 52.7 °F 29.91 in WNW 10.0 mph 20.0 mph 87 % 0.00 in 202 W/m2
16:50 56.7 °F 52.8 °F 29.91 in WNW 10.0 mph 19.0 mph 87 % 0.00 in 72 W/m2
16:55 56.7 °F 52.5 °F 29.92 in WNW 10.0 mph 19.0 mph 86 % 0.00 in 42 W/m2
17:00 56.5 °F 52.3 °F 29.92 in WNW 11.0 mph 20.0 mph 86 % 0.00 in 49 W/m2
17:05 56.1 °F 52.3 °F 29.92 in WNW 11.0 mph 20.0 mph 87 % 0.00 in 23 W/m2
17:10 56.1 °F 52.3 °F 29.92 in WNW 9.0 mph 14.0 mph 87 % 0.00 in 19 W/m2
17:11 55.9 °F 52.1 °F 29.92 in WNW 9.0 mph 14.0 mph 87 % 0.00 in 19 W/m2
17:16 55.9 °F 52.4 °F 29.92 in WNW 8.0 mph 14.0 mph 88 % 0.00 in 39 W/m2
17:21 55.8 °F 52.6 °F 29.92 in WNW 8.0 mph 14.0 mph 89 % 0.00 in 44 W/m2
17:26 55.6 °F 52.7 °F 29.92 in WNW 8.0 mph 14.0 mph 90 % 0.00 in 47 W/m2
17:31 55.6 °F 52.7 °F 29.92 in WNW 8.0 mph 15.0 mph 90 % 0.00 in 49 W/m2
17:36 55.6 °F 52.7 °F 29.92 in WNW 9.0 mph 15.0 mph 90 % 0.00 in 47 W/m2
17:46 55.2 °F 52.3 °F 29.92 in WNW 9.0 mph 14.0 mph 90 % 0.00 in 26 W/m2
17:51 55.2 °F 52.3 °F 29.92 in WNW 10.0 mph 19.0 mph 90 % 0.00 in 33 W/m2
17:56 55.2 °F 52.3 °F 29.92 in WNW 11.0 mph 20.0 mph 90 % 0.00 in 42 W/m2
18:01 55.2 °F 52.0 °F 29.92 in WNW 12.0 mph 20.0 mph 89 % 0.00 in 30 W/m2
18:06 55.2 °F 52.0 °F 29.92 in West 13.0 mph 20.0 mph 89 % 0.00 in 14 W/m2
18:11 55.2 °F 52.0 °F 29.92 in West 13.0 mph 20.0 mph 89 % 0.00 in 11 W/m2
18:16 55.2 °F 52.0 °F 29.92 in WNW 12.0 mph 24.0 mph 89 % 0.00 in 5 W/m2
18:21 55.0 °F 52.2 °F 29.93 in WNW 13.0 mph 24.0 mph 90 % 0.00 in 5 W/m2
18:26 55.0 °F 52.2 °F 29.93 in WNW 13.0 mph 22.0 mph 90 % 0.00 in 0 W/m2
18:31 54.9 °F 52.0 °F 29.92 in WNW 12.0 mph 21.0 mph 90 % 0.00 in 0 W/m2
18:36 54.7 °F 52.1 °F 29.92 in WNW 12.0 mph 21.0 mph 91 % 0.00 in 0 W/m2
18:41 54.3 °F 51.7 °F 29.93 in WNW 10.0 mph 16.0 mph 91 % 0.00 in 0 W/m2
18:46 54.1 °F 51.6 °F 29.93 in WNW 9.0 mph 18.0 mph 91 % 0.00 in 0 W/m2
18:51 54.1 °F 51.6 °F 29.93 in WNW 10.0 mph 19.0 mph 91 % 0.00 in 0 W/m2
18:56 54.1 °F 51.6 °F 29.93 in WNW 11.0 mph 19.0 mph 91 % 0.00 in 0 W/m2
19:01 54.1 °F 51.6 °F 29.93 in WNW 12.0 mph 21.0 mph 91 % 0.00 in 0 W/m2
19:06 54.1 °F 51.6 °F 29.93 in West 13.0 mph 24.0 mph 91 % 0.00 in 0 W/m2
19:11 54.1 °F 51.6 °F 29.93 in West 15.0 mph 24.0 mph 91 % 0.00 in 0 W/m2
19:16 54.1 °F 51.6 °F 29.93 in West 15.0 mph 23.0 mph 91 % 0.00 in 0 W/m2
19:22 54.0 °F 51.4 °F 29.93 in West 14.0 mph 23.0 mph 91 % 0.00 in 0 W/m2
19:27 54.0 °F 51.4 °F 29.93 in WNW 12.0 mph 20.0 mph 91 % 0.00 in 0 W/m2
19:31 53.8 °F 51.2 °F 29.93 in WNW 10.0 mph 20.0 mph 91 % 0.00 in 0 W/m2
19:37 53.8 °F 51.5 °F 29.94 in WNW 9.0 mph 16.0 mph 92 % 0.00 in 0 W/m2
19:47 53.6 °F 51.3 °F 29.94 in WNW 9.0 mph 14.0 mph 92 % 0.00 in 0 W/m2
19:52 53.4 °F 51.2 °F 29.95 in WNW 9.0 mph 14.0 mph 92 % 0.00 in 0 W/m2
19:57 53.4 °F 51.2 °F 29.95 in WNW 8.0 mph 14.0 mph 92 % 0.00 in 0 W/m2
20:02 53.4 °F 51.2 °F 29.96 in WNW 9.0 mph 15.0 mph 92 % 0.00 in 0 W/m2
20:07 53.4 °F 51.2 °F 29.96 in WNW 8.0 mph 15.0 mph 92 % 0.00 in 0 W/m2
20:12 53.4 °F 51.2 °F 29.96 in WNW 7.0 mph 11.0 mph 92 % 0.00 in 0 W/m2
20:17 53.6 °F 51.3 °F 29.95 in WNW 8.0 mph 14.0 mph 92 % 0.00 in 0 W/m2
20:22 53.6 °F 51.3 °F 29.96 in WNW 9.0 mph 14.0 mph 92 % 0.00 in 0 W/m2
20:27 53.6 °F 51.0 °F 29.95 in WNW 8.0 mph 14.0 mph 91 % 0.00 in 0 W/m2
20:32 53.8 °F 51.2 °F 29.95 in WNW 9.0 mph 15.0 mph 91 % 0.00 in 0 W/m2
20:37 53.6 °F 51.0 °F 29.95 in WNW 10.0 mph 15.0 mph 91 % 0.00 in 0 W/m2
20:42 53.6 °F 51.0 °F 29.96 in WNW 9.0 mph 14.0 mph 91 % 0.00 in 0 W/m2
20:49 53.4 °F 50.9 °F 29.96 in WNW 9.0 mph 14.0 mph 91 % 0.00 in 0 W/m2
20:54 53.4 °F 50.9 °F 29.96 in WNW 8.0 mph 15.0 mph 91 % 0.00 in 0 W/m2
20:59 53.4 °F 50.9 °F 29.95 in WNW 8.0 mph 13.0 mph 91 % 0.00 in 0 W/m2
21:04 53.2 °F 50.7 °F 29.96 in WNW 9.0 mph 15.0 mph 91 % 0.00 in 0 W/m2
21:09 53.2 °F 50.7 °F 29.95 in WNW 8.0 mph 15.0 mph 91 % 0.00 in 0 W/m2
21:14 53.2 °F 50.7 °F 29.95 in WNW 8.0 mph 14.0 mph 91 % 0.00 in 0 W/m2
21:19 53.2 °F 50.7 °F 29.96 in West 8.0 mph 15.0 mph 91 % 0.00 in 0 W/m2
21:24 53.2 °F 50.4 °F 29.96 in West 8.0 mph 15.0 mph 90 % 0.00 in 0 W/m2
21:29 53.1 °F 50.2 °F 29.96 in West 7.0 mph 11.0 mph 90 % 0.00 in 0 W/m2
21:34 53.1 °F 50.2 °F 29.96 in WNW 8.0 mph 15.0 mph 90 % 0.00 in 0 W/m2
21:39 53.1 °F 50.2 °F 29.96 in WNW 10.0 mph 18.0 mph 90 % 0.00 in 0 W/m2
21:44 53.1 °F 50.2 °F 29.97 in WNW 10.0 mph 18.0 mph 90 % 0.00 in 0 W/m2
21:49 53.1 °F 50.2 °F 29.97 in WNW 10.0 mph 15.0 mph 90 % 0.00 in 0 W/m2
21:54 53.1 °F 50.2 °F 29.97 in WNW 10.0 mph 15.0 mph 90 % 0.00 in 0 W/m2
21:59 53.1 °F 50.2 °F 29.97 in WNW 10.0 mph 19.0 mph 90 % 0.00 in 0 W/m2
22:04 53.1 °F 50.2 °F 29.97 in WNW 10.0 mph 19.0 mph 90 % 0.00 in 0 W/m2
22:09 53.1 °F 50.2 °F 29.97 in WNW 10.0 mph 16.0 mph 90 % 0.00 in 0 W/m2
22:14 53.1 °F 50.2 °F 29.97 in WNW 10.0 mph 16.0 mph 90 % 0.00 in 0 W/m2
22:20 52.9 °F 50.0 °F 29.98 in WNW 9.0 mph 15.0 mph 90 % 0.00 in 0 W/m2
22:25 52.9 °F 50.0 °F 29.98 in WNW 9.0 mph 15.0 mph 90 % 0.00 in 0 W/m2
22:30 52.9 °F 50.0 °F 29.98 in WNW 10.0 mph 18.0 mph 90 % 0.00 in 0 W/m2
22:35 52.9 °F 50.0 °F 29.98 in WNW 10.0 mph 18.0 mph 90 % 0.00 in 0 W/m2
22:40 52.9 °F 50.0 °F 29.99 in WNW 9.0 mph 15.0 mph 90 % 0.00 in 0 W/m2
22:45 52.7 °F 49.8 °F 29.99 in WNW 8.0 mph 14.0 mph 90 % 0.00 in 0 W/m2
22:50 52.5 °F 49.7 °F 29.99 in WNW 8.0 mph 15.0 mph 90 % 0.00 in 0 W/m2
22:55 52.5 °F 49.7 °F 29.99 in WNW 9.0 mph 15.0 mph 90 % 0.00 in 0 W/m2
23:00 52.5 °F 49.7 °F 29.99 in WNW 10.0 mph 16.0 mph 90 % 0.00 in 0 W/m2
23:05 52.5 °F 50.0 °F 29.99 in WNW 10.0 mph 18.0 mph 91 % 0.00 in 0 W/m2
23:10 52.5 °F 50.0 °F 29.98 in WNW 10.0 mph 18.0 mph 91 % 0.00 in 0 W/m2
23:15 52.5 °F 50.0 °F 29.99 in WNW 9.0 mph 16.0 mph 91 % 0.00 in 0 W/m2
23:20 52.3 °F 49.8 °F 29.99 in West 8.0 mph 14.0 mph 91 % 0.00 in 0 W/m2
23:30 52.2 °F 49.3 °F 29.99 in West 6.0 mph 11.0 mph 90 % 0.00 in 0 W/m2
23:35 52.2 °F 49.3 °F 29.99 in West 6.0 mph 11.0 mph 90 % 0.00 in 0 W/m2
23:40 52.0 °F 49.4 °F 29.99 in West 6.0 mph 11.0 mph 91 % 0.00 in 0 W/m2
23:45 52.0 °F 49.4 °F 29.99 in West 8.0 mph 15.0 mph 91 % 0.00 in 0 W/m2
23:50 52.0 °F 49.4 °F 29.99 in WNW 9.0 mph 15.0 mph 91 % 0.00 in 0 W/m2
23:55 52.0 °F 49.4 °F 29.99 in WNW 8.0 mph 13.0 mph 91 % 0.00 in 0 W/m2
Delerius-Weather
Compliments of Weather Underground - 2.25 mb

Data updates at regular intervals.